Olafur 2 — LH2197 — position and weather

sailwx.info

Track history (hours):
 
Tides and Currents Weather Stations Pressure Air Temp Water Temp Dewpoint Dewpoint Depression Visibility Wind Speed Wind Dir Waves Ship Positions

Olafur 2

Last reported at 2017-Nov-16 09:04 UTC. Time now 2017-Dec-12 10:31 UTC.
Position N 68°55' E 015°04'.
Warning: this ship's position is 26 days out of date.

Type: Pleasure craft. MMSI: 257017650.

Date/timePositionNaut miles runAvg speedWind from/ knotsBaromVisibWave heightAir tempDewpointWater temp
2017-Nov-16 09:04N 68°55' E 015°04'0 0.0
2017-Nov-16 08:58N 68°55' E 015°04'0 0.4
2017-Nov-16 08:28N 68°55' E 015°04'0 0.0
2017-Nov-16 07:58N 68°55' E 015°04'0 0.0
2017-Nov-16 07:28N 68°55' E 015°04'0 0.0
2017-Nov-16 06:58N 68°55' E 015°04'0 0.0
2017-Nov-16 06:28N 68°55' E 015°04'0 0.0
2017-Nov-16 05:58N 68°55' E 015°04'0 0.0
2017-Nov-16 05:28N 68°55' E 015°04'0 0.0
2017-Nov-16 04:58N 68°55' E 015°04'0 0.0
2017-Nov-16 04:25N 68°55' E 015°04'0 0.0
2017-Nov-16 03:58N 68°55' E 015°04'0 0.0
2017-Nov-16 03:28N 68°55' E 015°04'0 0.0
2017-Nov-16 02:58N 68°55' E 015°04'0 0.0
2017-Nov-16 02:28N 68°55' E 015°04'0 0.0
2017-Nov-16 01:58N 68°55' E 015°04'0 0.0
2017-Nov-16 01:28N 68°55' E 015°04'0 0.0
2017-Nov-16 00:58N 68°55' E 015°04'0 0.0
2017-Nov-16 00:28N 68°55' E 015°04'0 0.0
2017-Nov-15 23:52N 68°55' E 015°04'0 0.0
2017-Nov-15 23:28N 68°55' E 015°04'0 0.0
2017-Nov-15 22:58N 68°55' E 015°04'0 0.0
2017-Nov-15 22:28N 68°55' E 015°04'0 0.0
2017-Nov-15 21:58N 68°55' E 015°04'0 0.0
2017-Nov-15 21:28N 68°55' E 015°04'0 0.0
2017-Nov-15 20:58N 68°55' E 015°04'0 0.0
2017-Nov-15 20:27N 68°55' E 015°04'0 0.0
2017-Nov-15 20:00N 68°55' E 015°04'0 0.0
2017-Nov-15 19:30N 68°55' E 015°04'0 0.0
2017-Nov-15 19:00N 68°55' E 015°04'0 0.0
2017-Nov-15 18:27N 68°55' E 015°04'0 0.3
2017-Nov-15 17:57N 68°55' E 015°04'0 0.6
2017-Nov-15 17:29N 68°55' E 015°04'4 7.5
2017-Nov-15 16:59N 68°57' E 014°55'4 8.2
2017-Nov-15 16:30N 68°59' E 014°45'4 8.4
2017-Nov-15 16:00N 69°00' E 014°34'4 8.0
2017-Nov-15 15:30N 69°02' E 014°24'2 3.3
2017-Nov-15 15:00N 69°02' E 014°20'1 1.2
2017-Nov-15 14:30N 69°02' E 014°19'1 1.2
2017-Nov-15 14:00N 69°01' E 014°20'1 2.3
2017-Nov-15 13:30N 69°02' E 014°20'1 2.8
2017-Nov-15 13:00N 69°04' E 014°21'0 1.0
2017-Nov-15 12:30N 69°03' E 014°21'1 1.0
2017-Nov-15 11:59N 69°03' E 014°20'0 0.9
2017-Nov-15 11:30N 69°02' E 014°20'0 0.7
2017-Nov-15 11:00N 69°02' E 014°20'0 0.6
2017-Nov-15 10:30N 69°02' E 014°20'0 0.4
2017-Nov-15 09:59N 69°01' E 014°20'0 0.5
2017-Nov-15 09:29N 69°01' E 014°20'1 2.3
2017-Nov-15 09:00N 69°00' E 014°21'2 3.3
2017-Nov-15 08:30N 69°02' E 014°19'1 1.6
2017-Nov-15 07:59N 69°01' E 014°20'2 5.0
2017-Nov-15 07:30N 68°59' E 014°23'3 6.5
2017-Nov-15 07:00N 68°56' E 014°28'3 5.2
2017-Nov-15 06:29N 68°56' E 014°36'3 6.8
2017-Nov-15 06:00N 68°57' E 014°45'4 7.4
2017-Nov-15 05:29N 68°57' E 014°55'4 7.7
2017-Nov-15 04:59N 68°55' E 015°04'0 0.3
2017-Nov-15 04:30N 68°55' E 015°04'0 0.0
2017-Nov-15 04:00N 68°55' E 015°04'0 0.0
2017-Nov-15 03:30N 68°55' E 015°04'0 0.0
2017-Nov-15 03:00N 68°55' E 015°04'0 0.0
2017-Nov-15 02:27N 68°55' E 015°04'0 0.0
2017-Nov-15 02:00N 68°55' E 015°04'0 0.0
2017-Nov-15 01:30N 68°55' E 015°04'0 0.0
2017-Nov-15 01:00N 68°55' E 015°04'0 0.0
2017-Nov-15 00:30N 68°55' E 015°04'0 0.0
2017-Nov-15 00:00N 68°55' E 015°04'0 0.0
2017-Nov-14 23:30N 68°55' E 015°04'0 0.0
2017-Nov-14 23:00N 68°55' E 015°04'0 0.0
2017-Nov-14 22:30N 68°55' E 015°04'0 0.0
2017-Nov-14 22:00N 68°55' E 015°04'0 0.0
2017-Nov-14 21:30N 68°55' E 015°04'0 0.0
2017-Nov-14 21:00N 68°55' E 015°04'0 0.0
2017-Nov-14 20:31N 68°55' E 015°04'0 0.0
2017-Nov-14 20:00N 68°55' E 015°04'0 0.0
2017-Nov-14 19:30N 68°55' E 015°04'0 0.0
2017-Nov-14 19:00N 68°55' E 015°04'0 0.0
2017-Nov-14 18:31N 68°55' E 015°04'0 0.0
2017-Nov-14 18:01N 68°55' E 015°04'0 0.0
2017-Nov-14 17:31N 68°55' E 015°04'0 0.3
2017-Nov-14 17:00N 68°55' E 015°04'3 5.4
2017-Nov-14 16:30N 68°56' E 014°58'4 8.3
2017-Nov-14 16:00N 68°58' E 014°48'4 8.5
2017-Nov-14 15:30N 68°59' E 014°37'4 8.5
2017-Nov-14 15:00N 68°60' E 014°25'1 2.7
2017-Nov-14 14:27N 68°60' E 014°21'0 1.0
2017-Nov-14 14:00N 69°00' E 014°22'0 0.6
2017-Nov-14 13:30N 69°00' E 014°21'0 0.4
2017-Nov-14 13:00N 69°00' E 014°21'0 0.5
2017-Nov-14 12:30N 69°00' E 014°21'2 3.3
2017-Nov-14 12:00N 69°02' E 014°19'0 0.6
2017-Nov-14 11:30N 69°02' E 014°20'0 0.4
2017-Nov-14 11:00N 69°01' E 014°19'0 0.9
2017-Nov-14 10:30N 69°02' E 014°21'0 0.6
2017-Nov-14 10:00N 69°01' E 014°20'1 2.6
2017-Nov-14 09:30N 69°00' E 014°21'0 0.5
2017-Nov-14 09:00N 69°00' E 014°21'0 1.0
2017-Nov-14 08:30N 69°00' E 014°22'0 0.5
2017-Nov-14 07:59N 69°00' E 014°21'0 0.5
2017-Nov-14 07:30N 68°60' E 014°21'3 7.0
2017-Nov-14 07:00N 68°59' E 014°31'4 7.5
2017-Nov-14 06:30N 68°58' E 014°41'4 7.9
2017-Nov-14 06:00N 68°58' E 014°52'4 7.7
2017-Nov-14 05:26N 68°55' E 015°02'1 1.9
2017-Nov-14 04:58N 68°55' E 015°04'0 0.0
2017-Nov-14 04:28N 68°55' E 015°04'0 0.0
2017-Nov-14 03:58N 68°55' E 015°04'0 0.0
2017-Nov-14 03:28N 68°55' E 015°04'0 0.0
2017-Nov-14 02:58N 68°55' E 015°04'0 0.0
2017-Nov-14 02:28N 68°55' E 015°04'0 0.0
2017-Nov-14 01:58N 68°55' E 015°04'0 0.0
2017-Nov-14 01:28N 68°55' E 015°04'0 0.0
2017-Nov-14 00:58N 68°55' E 015°04'0 0.0
2017-Nov-14 00:28N 68°55' E 015°04'0 0.0
2017-Nov-13 23:55N 68°55' E 015°04'0 0.0
2017-Nov-13 23:25N 68°55' E 015°04'0 0.0
2017-Nov-13 22:58N 68°55' E 015°04'0 0.0
2017-Nov-13 22:28N 68°55' E 015°04'0 0.0
2017-Nov-13 21:55N 68°55' E 015°04'0 0.0
2017-Nov-13 01:58N 68°55' E 015°04'0 0.0
2017-Nov-13 01:28N 68°55' E 015°04'0 0.0
2017-Nov-13 00:58N 68°55' E 015°04'0 0.0
2017-Nov-13 00:28N 68°55' E 015°04'0 0.0
2017-Nov-12 23:58N 68°55' E 015°04'0 0.0
2017-Nov-12 23:28N 68°55' E 015°04'0 0.0
2017-Nov-12 22:58N 68°55' E 015°04'0 0.0
2017-Nov-12 22:28N 68°55' E 015°04'0 0.0
2017-Nov-12 21:58N 68°55' E 015°04'0 0.0
2017-Nov-12 21:28N 68°55' E 015°04'0 0.0
2017-Nov-12 20:58N 68°55' E 015°04'0 0.0
2017-Nov-12 20:28N 68°55' E 015°04'0 0.0
2017-Nov-12 19:58N 68°55' E 015°04'0 0.0
2017-Nov-12 19:28N 68°55' E 015°04'0 0.0
2017-Nov-12 18:58N 68°55' E 015°04'0 0.0
2017-Nov-12 18:29N 68°55' E 015°04'0 0.0
2017-Nov-12 17:59N 68°55' E 015°04'0 0.0
2017-Nov-12 17:29N 68°55' E 015°04'0 0.3
2017-Nov-12 16:59N 68°55' E 015°04'3 7.0
2017-Nov-12 16:30N 68°57' E 014°57'4 8.3
2017-Nov-12 16:00N 68°58' E 014°46'4 8.5
2017-Nov-12 15:30N 68°59' E 014°35'4 8.7
2017-Nov-12 15:00N 69°00' E 014°23'1 1.0
2017-Nov-12 14:30N 69°00' E 014°21'2 4.7
2017-Nov-12 13:59N 69°02' E 014°22'1 1.2
2017-Nov-12 13:30N 69°03' E 014°22'0 0.5
2017-Nov-12 12:59N 69°03' E 014°22'0 0.5
2017-Nov-12 12:30N 69°03' E 014°21'0 0.4
2017-Nov-12 12:00N 69°03' E 014°21'0 0.4
2017-Nov-12 11:29N 69°02' E 014°20'0 0.6
2017-Nov-12 11:00N 69°02' E 014°20'0 0.7
2017-Nov-12 10:30N 69°02' E 014°19'1 2.0
2017-Nov-12 10:00N 69°01' E 014°17'2 3.6
2017-Nov-12 09:29N 69°00' E 014°21'0 0.3
2017-Nov-12 09:00N 68°60' E 014°21'0 0.5
2017-Nov-12 08:30N 69°00' E 014°21'0 0.2
2017-Nov-12 08:00N 69°00' E 014°21'0 0.3
2017-Nov-12 07:30N 68°60' E 014°21'4 7.8
2017-Nov-12 07:00N 68°59' E 014°32'4 7.6
2017-Nov-12 06:30N 68°59' E 014°42'4 7.8
2017-Nov-12 06:00N 68°58' E 014°53'4 7.7
2017-Nov-12 05:27N 68°55' E 015°02'1 1.9
2017-Nov-12 04:55N 68°55' E 015°04'0 0.0
2017-Nov-12 04:28N 68°55' E 015°04'0 0.0
2017-Nov-12 03:58N 68°55' E 015°04'0 0.0
2017-Nov-12 03:28N 68°55' E 015°04'0 0.0
2017-Nov-12 02:58N 68°55' E 015°04'0 0.0
2017-Nov-12 02:28N 68°55' E 015°04'0 0.0
2017-Nov-12 01:58N 68°55' E 015°04'0 0.0
2017-Nov-12 01:28N 68°55' E 015°04'0 0.0
2017-Nov-12 00:58N 68°55' E 015°04'0 0.0
2017-Nov-12 00:28N 68°55' E 015°04'0 0.0
2017-Nov-11 23:58N 68°55' E 015°04'0 0.0
2017-Nov-11 23:28N 68°55' E 015°04'0 0.0
2017-Nov-11 22:58N 68°55' E 015°04'0 0.0
2017-Nov-11 22:28N 68°55' E 015°04'0 0.0
2017-Nov-11 21:58N 68°55' E 015°04'0 0.0
2017-Nov-11 21:28N 68°55' E 015°04'0 0.0
2017-Nov-11 20:58N 68°55' E 015°04'0 0.0
2017-Nov-11 20:28N 68°55' E 015°04'0 0.0
2017-Nov-11 19:58N 68°55' E 015°04'0 0.0
2017-Nov-11 19:28N 68°55' E 015°04'0 0.0
2017-Nov-11 18:58N 68°55' E 015°04'0 0.0
2017-Nov-11 18:28N 68°55' E 015°04'0 0.0
2017-Nov-11 17:58N 68°55' E 015°04'0 0.0
2017-Nov-11 17:28N 68°55' E 015°04'0 0.0
2017-Nov-11 16:58N 68°55' E 015°04'0 0.0
2017-Nov-11 16:28N 68°55' E 015°04'0 0.0
2017-Nov-11 15:58N 68°55' E 015°04'0 0.0
2017-Nov-11 15:28N 68°55' E 015°04'0 0.0
2017-Nov-11 14:58N 68°55' E 015°04'0 0.0
2017-Nov-11 14:28N 68°55' E 015°04'0 0.0
2017-Nov-11 13:59N 68°55' E 015°04'0 0.3
2017-Nov-11 13:28N 68°55' E 015°04'2 4.8
2017-Nov-11 13:00N 68°53' E 014°60'3 6.4
2017-Nov-11 12:30N 68°51' E 014°52'0 0.8
2017-Nov-11 11:57N 68°51' E 014°52'2 3.7
2017-Nov-11 11:30N 68°51' E 014°47'1 2.6
2017-Nov-11 10:57N 68°52' E 014°44'0 0.1
2017-Nov-11 10:30N 68°52' E 014°44'0 0.2
2017-Nov-11 09:59N 68°52' E 014°44'3 6.3
2017-Nov-11 09:27N 68°51' E 014°53'3 7.8
2017-Nov-11 09:00N 68°53' E 015°01'2 3.2
2017-Nov-11 08:28N 68°55' E 015°04'0 0.0
2017-Nov-11 07:58N 68°55' E 015°04'0 0.0
2017-Nov-11 07:28N 68°55' E 015°04'0 0.0
2017-Nov-11 06:58N 68°55' E 015°04'0 0.0
2017-Nov-11 06:28N 68°55' E 015°04'0 0.0
2017-Nov-11 05:58N 68°55' E 015°04'0 0.0
2017-Nov-11 05:28N 68°55' E 015°04'0 0.0
2017-Nov-11 04:58N 68°55' E 015°04'0 0.0
2017-Nov-11 04:28N 68°55' E 015°04'0 0.0
2017-Nov-11 03:58N 68°55' E 015°04'0 0.0
2017-Nov-11 03:28N 68°55' E 015°04'0 0.0
2017-Nov-11 02:58N 68°55' E 015°04'0 0.0
2017-Nov-11 02:28N 68°55' E 015°04'0 0.0
2017-Nov-11 01:58N 68°55' E 015°04'0 0.0
2017-Nov-11 01:28N 68°55' E 015°04'0 0.0
2017-Nov-11 00:58N 68°55' E 015°04'0 0.0
2017-Nov-11 00:28N 68°55' E 015°04'0 0.0
2017-Nov-10 23:58N 68°55' E 015°04'0 0.0
2017-Nov-10 23:28N 68°55' E 015°04'0 0.0
2017-Nov-10 22:58N 68°55' E 015°04'0 0.0
2017-Nov-10 22:25N 68°55' E 015°04'0 0.0
2017-Nov-10 21:58N 68°55' E 015°04'0 0.0
2017-Nov-10 21:28N 68°55' E 015°04'0 0.0
2017-Nov-10 20:55N 68°55' E 015°04'0 0.0
2017-Nov-10 20:28N 68°55' E 015°04'0 0.0
2017-Nov-10 19:58N 68°55' E 015°04'0 0.0
2017-Nov-10 19:25N 68°55' E 015°04'0 0.0
2017-Nov-10 18:58N 68°55' E 015°04'0 0.0
2017-Nov-10 18:28N 68°55' E 015°04'0 0.0
2017-Nov-10 17:58N 68°55' E 015°04'0 0.0
2017-Nov-10 17:28N 68°55' E 015°04'0 0.0
2017-Nov-10 16:58N 68°55' E 015°04'0 0.0
2017-Nov-10 16:28N 68°55' E 015°04'0 0.0
2017-Nov-10 15:58N 68°55' E 015°04'0 0.0
2017-Nov-10 15:28N 68°55' E 015°04'0 0.0
2017-Nov-10 14:52N 68°55' E 015°04'0 0.0
2017-Nov-10 14:28N 68°55' E 015°04'0 0.0
2017-Nov-10 13:58N 68°55' E 015°04'0 0.0
2017-Nov-10 13:25N 68°55' E 015°04'0 0.0
2017-Nov-10 12:58N 68°55' E 015°04'0 0.0
2017-Nov-10 12:28N 68°55' E 015°04'0 0.0
2017-Nov-10 11:58N 68°55' E 015°04'0 0.0
2017-Nov-10 11:28N 68°55' E 015°04'0 0.0
2017-Nov-10 10:58N 68°55' E 015°04'0 0.0
2017-Nov-10 10:28N 68°55' E 015°04'0 0.0
2017-Nov-10 09:58N 68°55' E 015°04'0 0.0
2017-Nov-10 09:28N 68°55' E 015°04'0 0.0
2017-Nov-10 08:58N 68°55' E 015°04'0 0.0
2017-Nov-10 08:28N 68°55' E 015°04'0 0.0
2017-Nov-10 07:58N 68°55' E 015°04'0 0.0
2017-Nov-10 07:28N 68°55' E 015°04'0 0.0
2017-Nov-10 06:58N 68°55' E 015°04'0 0.0
2017-Nov-10 06:28N 68°55' E 015°04'0 0.0
2017-Nov-10 05:58N 68°55' E 015°04'0 0.0
2017-Nov-10 05:28N 68°55' E 015°04'0 0.0
2017-Nov-10 04:58N 68°55' E 015°04'0 0.0
2017-Nov-10 04:28N 68°55' E 015°04'0 0.0
2017-Nov-10 03:55N 68°55' E 015°04'0 0.0
2017-Nov-10 03:28N 68°55' E 015°04'0 0.0
2017-Nov-10 02:58N 68°55' E 015°04'0 0.0
2017-Nov-10 02:28N 68°55' E 015°04'0 0.0
2017-Nov-10 01:58N 68°55' E 015°04'0 0.0
2017-Nov-10 01:28N 68°55' E 015°04'0 0.0
2017-Nov-10 00:58N 68°55' E 015°04'0 0.0
2017-Nov-10 00:28N 68°55' E 015°04'0 0.0
2017-Nov-09 23:58N 68°55' E 015°04'0 0.0
2017-Nov-09 23:28N 68°55' E 015°04'0 0.0
2017-Nov-09 22:58N 68°55' E 015°04'0 0.0
2017-Nov-09 22:28N 68°55' E 015°04'0 0.0
2017-Nov-09 21:58N 68°55' E 015°04'0 0.0
2017-Nov-09 21:28N 68°55' E 015°04'0 0.0
2017-Nov-09 20:58N 68°55' E 015°04'0 0.0
2017-Nov-09 20:25N 68°55' E 015°04'0 0.0
2017-Nov-09 19:58N 68°55' E 015°04'0 0.0
2017-Nov-09 19:28N 68°55' E 015°04'0 0.0
2017-Nov-09 18:58N 68°55' E 015°04'0 0.0
2017-Nov-09 18:28N 68°55' E 015°04'0 0.0
2017-Nov-09 17:58N 68°55' E 015°04'0 0.0
2017-Nov-09 17:28N 68°55' E 015°04'0 0.0
2017-Nov-09 16:58N 68°55' E 015°04'0 0.0
2017-Nov-09 16:28N 68°55' E 015°04'0 0.0
2017-Nov-09 15:58N 68°55' E 015°04'0 0.0
2017-Nov-09 15:28N 68°55' E 015°04'0 0.0
2017-Nov-09 14:58N 68°55' E 015°04'0 0.0
2017-Nov-09 14:28N 68°55' E 015°04'0 0.0
2017-Nov-09 13:58N 68°55' E 015°04'0 0.0
2017-Nov-09 13:28N 68°55' E 015°04'0 0.0
2017-Nov-09 12:55N 68°55' E 015°04'0 0.0
2017-Nov-09 12:28N 68°55' E 015°04'0 0.0
2017-Nov-09 11:58N 68°55' E 015°04'0 0.0
2017-Nov-09 11:28N 68°55' E 015°04'0 0.0
2017-Nov-09 10:58N 68°55' E 015°04'0 0.0
2017-Nov-09 10:28N 68°55' E 015°04'0 0.0
2017-Nov-09 09:58N 68°55' E 015°04'0 0.0
2017-Nov-09 09:28N 68°55' E 015°04'0 0.0
2017-Nov-09 08:58N 68°55' E 015°04'0 0.0
2017-Nov-09 08:28N 68°55' E 015°04'0 0.0
2017-Nov-09 07:58N 68°55' E 015°04'0 0.0
2017-Nov-09 07:28N 68°55' E 015°04'0 0.0
2017-Nov-09 06:58N 68°55' E 015°04'0 0.0
2017-Nov-09 06:28N 68°55' E 015°04'0 0.0
2017-Nov-09 05:58N 68°55' E 015°04'0 0.0
2017-Nov-09 05:28N 68°55' E 015°04'0 0.0
2017-Nov-09 04:58N 68°55' E 015°04'0 0.0
2017-Nov-09 04:28N 68°55' E 015°04'0 0.0
2017-Nov-09 03:58N 68°55' E 015°04'0 0.0
2017-Nov-09 03:28N 68°55' E 015°04'0 0.0
2017-Nov-09 02:58N 68°55' E 015°04'0 0.0
2017-Nov-09 02:28N 68°55' E 015°04'0 0.0
2017-Nov-09 01:58N 68°55' E 015°04'0 0.0
2017-Nov-09 01:28N 68°55' E 015°04'0 0.0
2017-Nov-09 00:58N 68°55' E 015°04'0 0.0
2017-Nov-09 00:28N 68°55' E 015°04'0 0.0
2017-Nov-08 23:58N 68°55' E 015°04'0 0.0
2017-Nov-08 23:28N 68°55' E 015°04'0 0.0
2017-Nov-08 22:58N 68°55' E 015°04'0 0.0
2017-Nov-08 22:28N 68°55' E 015°04'0 0.0
2017-Nov-08 21:55N 68°55' E 015°04'0 0.0
2017-Nov-08 21:28N 68°55' E 015°04'0 0.0
2017-Nov-08 20:58N 68°55' E 015°04'0 0.0
2017-Nov-08 20:28N 68°55' E 015°04'0 0.0
2017-Nov-08 19:58N 68°55' E 015°04'0 0.0
2017-Nov-08 19:28N 68°55' E 015°04'0 0.0
2017-Nov-08 18:58N 68°55' E 015°04'0 0.0
2017-Nov-08 18:28N 68°55' E 015°04'0 0.0
2017-Nov-08 17:58N 68°55' E 015°04'0 0.0
2017-Nov-08 17:28N 68°55' E 015°04'0 0.0
2017-Nov-08 16:58N 68°55' E 015°04'0 0.0
2017-Nov-08 16:27N 68°55' E 015°04'0 0.0
2017-Nov-08 16:00N 68°55' E 015°04'0 0.3
2017-Nov-08 15:28N 68°55' E 015°04'3 5.8
2017-Nov-08 15:00N 68°53' E 014°59'4 7.8
2017-Nov-08 14:30N 68°52' E 014°49'2 2.5
2017-Nov-08 13:48N 68°52' E 014°44'0 0.2
2017-Nov-08 12:33N 68°52' E 014°44'0 0.4
2017-Nov-08 12:30N 68°52' E 014°44'4 1.2
2017-Nov-08 09:03N 68°52' E 014°56'0 8.5
2017-Nov-08 09:00N 68°52' E 014°57'4 7.2
2017-Nov-08 08:28N 68°55' E 015°04'0 0.4
2017-Nov-08 07:56N 68°55' E 015°04'0 0.0
2017-Nov-08 07:23N 68°55' E 015°04'0 0.0
2017-Nov-08 06:35N 68°55' E 015°04'0 0.0
2017-Nov-08 06:29N 68°55' E 015°04'0 0.0
2017-Nov-08 05:53N 68°55' E 015°04'0 0.0
2017-Nov-08 05:23N 68°55' E 015°04'0 0.0
2017-Nov-08 04:56N 68°55' E 015°04'0 0.0
2017-Nov-08 04:29N 68°55' E 015°04'0 0.0
2017-Nov-08 03:56N 68°55' E 015°04'0 0.0
2017-Nov-08 03:26N 68°55' E 015°04'0 0.0
2017-Nov-08 02:56N 68°55' E 015°04'0 0.0
2017-Nov-08 02:26N 68°55' E 015°04'0 0.0
2017-Nov-08 01:58N 68°55' E 015°04'0 0.0
2017-Nov-08 01:28N 68°55' E 015°04'0 0.0
2017-Nov-08 00:58N 68°55' E 015°04'0 0.0
2017-Nov-08 00:25N 68°55' E 015°04'0 0.0
2017-Nov-07 23:58N 68°55' E 015°04'0 0.0
2017-Nov-07 22:35N 68°55' E 015°04'0 0.0
2017-Nov-07 22:26N 68°55' E 015°04'0 0.0
2017-Nov-07 21:59N 68°55' E 015°04'0 0.0
2017-Nov-07 21:29N 68°55' E 015°04'0 0.0
2017-Nov-07 20:59N 68°55' E 015°04'0 0.0
2017-Nov-07 20:29N 68°55' E 015°04'0 0.0
2017-Nov-07 19:59N 68°55' E 015°04'0 0.0
2017-Nov-07 19:29N 68°55' E 015°04'0 0.0
2017-Nov-07 18:58N 68°55' E 015°04'0 0.0
2017-Nov-07 18:28N 68°55' E 015°04'0 0.0
2017-Nov-07 17:55N 68°55' E 015°04'0 0.0
2017-Nov-07 17:28N 68°55' E 015°04'0 0.0
2017-Nov-07 16:58N 68°55' E 015°04'0 0.0
2017-Nov-07 16:28N 68°55' E 015°04'0 0.5
2017-Nov-07 16:00N 68°55' E 015°04'4 7.7
2017-Nov-07 15:30N 68°52' E 014°57'4 7.9
2017-Nov-07 14:59N 68°52' E 014°46'1 0.8
2017-Nov-07 14:18N 68°52' E 014°44'0 1.0
2017-Nov-07 13:58N 68°52' E 014°44'0 0.4
2017-Nov-07 13:29N 68°52' E 014°44'0 0.2
2017-Nov-07 12:53N 68°52' E 014°44'1 2.5
2017-Nov-07 12:30N 68°52' E 014°41'3 6.7
2017-Nov-07 11:59N 68°54' E 014°34'4 7.2
2017-Nov-07 11:29N 68°57' E 014°27'2 4.4
2017-Nov-07 11:00N 68°58' E 014°23'2 4.1
2017-Nov-07 10:30N 69°00' E 014°21'1 1.0
2017-Nov-07 09:59N 69°01' E 014°21'1 1.4
2017-Nov-07 09:29N 69°01' E 014°20'1 1.1
2017-Nov-07 09:00N 69°02' E 014°20'1 1.1
2017-Nov-07 08:30N 69°02' E 014°18'2 3.4
2017-Nov-07 08:00N 69°00' E 014°20'0 0.8
2017-Nov-07 07:29N 69°00' E 014°21'0 0.3
2017-Nov-07 07:00N 69°00' E 014°21'4 6.9
2017-Nov-07 06:29N 68°59' E 014°31'4 8.4
2017-Nov-07 06:00N 68°58' E 014°41'4 8.5
2017-Nov-07 05:30N 68°57' E 014°53'4 7.8
2017-Nov-07 05:00N 68°55' E 015°02'1 1.9
2017-Nov-07 04:28N 68°55' E 015°04'0 0.0
2017-Nov-07 03:58N 68°55' E 015°04'0 0.0
2017-Nov-07 03:28N 68°55' E 015°04'0 0.0
2017-Nov-07 02:58N 68°55' E 015°04'0 0.0
2017-Nov-07 02:25N 68°55' E 015°04'0 0.0
2017-Nov-07 01:58N 68°55' E 015°04'0 0.0
2017-Nov-07 01:28N 68°55' E 015°04'0 0.0
2017-Nov-07 00:58N 68°55' E 015°04'0 0.0
2017-Nov-07 00:28N 68°55' E 015°04'0 0.0
2017-Nov-06 23:58N 68°55' E 015°04'0 0.0
2017-Nov-06 23:28N 68°55' E 015°04'0 0.0
2017-Nov-06 22:58N 68°55' E 015°04'0 0.0
2017-Nov-06 22:25N 68°55' E 015°04'0 0.0
2017-Nov-06 21:58N 68°55' E 015°04'0 0.0
2017-Nov-06 21:28N 68°55' E 015°04'0 0.0
2017-Nov-06 20:58N 68°55' E 015°04'0 0.0
2017-Nov-06 20:28N 68°55' E 015°04'  
Track history (hours):
 
Tides and Currents Weather Stations Pressure Air Temp Water Temp Dewpoint Dewpoint Depression Visibility Wind Speed Wind Dir Waves Ship Positions

Olafur 2

Last reported at 2017-Nov-16 09:04 UTC. Time now 2017-Dec-12 10:31 UTC.
Position N 68°55' E 015°04'.
Warning: this ship's position is 26 days out of date.

Type: Pleasure craft. MMSI: 257017650.

Date/timePositionNaut miles runAvg speedWind from/ knotsBaromVisibWave heightAir tempDewpointWater temp
2017-Nov-16 09:04N 68°55' E 015°04'0 0.0
2017-Nov-16 08:58N 68°55' E 015°04'0 0.4
2017-Nov-16 08:28N 68°55' E 015°04'0 0.0
2017-Nov-16 07:58N 68°55' E 015°04'0 0.0
2017-Nov-16 07:28N 68°55' E 015°04'0 0.0
2017-Nov-16 06:58N 68°55' E 015°04'0 0.0
2017-Nov-16 06:28N 68°55' E 015°04'0 0.0
2017-Nov-16 05:58N 68°55' E 015°04'0 0.0
2017-Nov-16 05:28N 68°55' E 015°04'0 0.0
2017-Nov-16 04:58N 68°55' E 015°04'0 0.0
2017-Nov-16 04:25N 68°55' E 015°04'0 0.0
2017-Nov-16 03:58N 68°55' E 015°04'0 0.0
2017-Nov-16 03:28N 68°55' E 015°04'0 0.0
2017-Nov-16 02:58N 68°55' E 015°04'0 0.0
2017-Nov-16 02:28N 68°55' E 015°04'0 0.0
2017-Nov-16 01:58N 68°55' E 015°04'0 0.0
2017-Nov-16 01:28N 68°55' E 015°04'0 0.0
2017-Nov-16 00:58N 68°55' E 015°04'0 0.0
2017-Nov-16 00:28N 68°55' E 015°04'0 0.0
2017-Nov-15 23:52N 68°55' E 015°04'0 0.0
2017-Nov-15 23:28N 68°55' E 015°04'0 0.0
2017-Nov-15 22:58N 68°55' E 015°04'0 0.0
2017-Nov-15 22:28N 68°55' E 015°04'0 0.0
2017-Nov-15 21:58N 68°55' E 015°04'0 0.0
2017-Nov-15 21:28N 68°55' E 015°04'0 0.0
2017-Nov-15 20:58N 68°55' E 015°04'0 0.0
2017-Nov-15 20:27N 68°55' E 015°04'0 0.0
2017-Nov-15 20:00N 68°55' E 015°04'0 0.0
2017-Nov-15 19:30N 68°55' E 015°04'0 0.0
2017-Nov-15 19:00N 68°55' E 015°04'0 0.0
2017-Nov-15 18:27N 68°55' E 015°04'0 0.3
2017-Nov-15 17:57N 68°55' E 015°04'0 0.6
2017-Nov-15 17:29N 68°55' E 015°04'4 7.5
2017-Nov-15 16:59N 68°57' E 014°55'4 8.2
2017-Nov-15 16:30N 68°59' E 014°45'4 8.4
2017-Nov-15 16:00N 69°00' E 014°34'4 8.0
2017-Nov-15 15:30N 69°02' E 014°24'2 3.3
2017-Nov-15 15:00N 69°02' E 014°20'1 1.2
2017-Nov-15 14:30N 69°02' E 014°19'1 1.2
2017-Nov-15 14:00N 69°01' E 014°20'1 2.3
2017-Nov-15 13:30N 69°02' E 014°20'1 2.8
2017-Nov-15 13:00N 69°04' E 014°21'0 1.0
2017-Nov-15 12:30N 69°03' E 014°21'1 1.0
2017-Nov-15 11:59N 69°03' E 014°20'0 0.9
2017-Nov-15 11:30N 69°02' E 014°20'0 0.7
2017-Nov-15 11:00N 69°02' E 014°20'0 0.6
2017-Nov-15 10:30N 69°02' E 014°20'0 0.4
2017-Nov-15 09:59N 69°01' E 014°20'0 0.5
2017-Nov-15 09:29N 69°01' E 014°20'1 2.3
2017-Nov-15 09:00N 69°00' E 014°21'2 3.3
2017-Nov-15 08:30N 69°02' E 014°19'1 1.6
2017-Nov-15 07:59N 69°01' E 014°20'2 5.0
2017-Nov-15 07:30N 68°59' E 014°23'3 6.5
2017-Nov-15 07:00N 68°56' E 014°28'3 5.2
2017-Nov-15 06:29N 68°56' E 014°36'3 6.8
2017-Nov-15 06:00N 68°57' E 014°45'4 7.4
2017-Nov-15 05:29N 68°57' E 014°55'4 7.7
2017-Nov-15 04:59N 68°55' E 015°04'0 0.3
2017-Nov-15 04:30N 68°55' E 015°04'0 0.0
2017-Nov-15 04:00N 68°55' E 015°04'0 0.0
2017-Nov-15 03:30N 68°55' E 015°04'0 0.0
2017-Nov-15 03:00N 68°55' E 015°04'0 0.0
2017-Nov-15 02:27N 68°55' E 015°04'0 0.0
2017-Nov-15 02:00N 68°55' E 015°04'0 0.0
2017-Nov-15 01:30N 68°55' E 015°04'0 0.0
2017-Nov-15 01:00N 68°55' E 015°04'0 0.0
2017-Nov-15 00:30N 68°55' E 015°04'0 0.0
2017-Nov-15 00:00N 68°55' E 015°04'0 0.0
2017-Nov-14 23:30N 68°55' E 015°04'0 0.0
2017-Nov-14 23:00N 68°55' E 015°04'0 0.0
2017-Nov-14 22:30N 68°55' E 015°04'0 0.0
2017-Nov-14 22:00N 68°55' E 015°04'0 0.0
2017-Nov-14 21:30N 68°55' E 015°04'0 0.0
2017-Nov-14 21:00N 68°55' E 015°04'0 0.0
2017-Nov-14 20:31N 68°55' E 015°04'0 0.0
2017-Nov-14 20:00N 68°55' E 015°04'0 0.0
2017-Nov-14 19:30N 68°55' E 015°04'0 0.0
2017-Nov-14 19:00N 68°55' E 015°04'0 0.0
2017-Nov-14 18:31N 68°55' E 015°04'0 0.0
2017-Nov-14 18:01N 68°55' E 015°04'0 0.0
2017-Nov-14 17:31N 68°55' E 015°04'0 0.3
2017-Nov-14 17:00N 68°55' E 015°04'3 5.4
2017-Nov-14 16:30N 68°56' E 014°58'4 8.3
2017-Nov-14 16:00N 68°58' E 014°48'4 8.5
2017-Nov-14 15:30N 68°59' E 014°37'4 8.5
2017-Nov-14 15:00N 68°60' E 014°25'1 2.7
2017-Nov-14 14:27N 68°60' E 014°21'0 1.0
2017-Nov-14 14:00N 69°00' E 014°22'0 0.6
2017-Nov-14 13:30N 69°00' E 014°21'0 0.4
2017-Nov-14 13:00N 69°00' E 014°21'0 0.5
2017-Nov-14 12:30N 69°00' E 014°21'2 3.3
2017-Nov-14 12:00N 69°02' E 014°19'0 0.6
2017-Nov-14 11:30N 69°02' E 014°20'0 0.4
2017-Nov-14 11:00N 69°01' E 014°19'0 0.9
2017-Nov-14 10:30N 69°02' E 014°21'0 0.6
2017-Nov-14 10:00N 69°01' E 014°20'1 2.6
2017-Nov-14 09:30N 69°00' E 014°21'0 0.5
2017-Nov-14 09:00N 69°00' E 014°21'0 1.0
2017-Nov-14 08:30N 69°00' E 014°22'0 0.5
2017-Nov-14 07:59N 69°00' E 014°21'0 0.5
2017-Nov-14 07:30N 68°60' E 014°21'3 7.0
2017-Nov-14 07:00N 68°59' E 014°31'4 7.5
2017-Nov-14 06:30N 68°58' E 014°41'4 7.9
2017-Nov-14 06:00N 68°58' E 014°52'4 7.7
2017-Nov-14 05:26N 68°55' E 015°02'1 1.9
2017-Nov-14 04:58N 68°55' E 015°04'0 0.0
2017-Nov-14 04:28N 68°55' E 015°04'0 0.0
2017-Nov-14 03:58N 68°55' E 015°04'0 0.0
2017-Nov-14 03:28N 68°55' E 015°04'0 0.0
2017-Nov-14 02:58N 68°55' E 015°04'0 0.0
2017-Nov-14 02:28N 68°55' E 015°04'0 0.0
2017-Nov-14 01:58N 68°55' E 015°04'0 0.0
2017-Nov-14 01:28N 68°55' E 015°04'0 0.0
2017-Nov-14 00:58N 68°55' E 015°04'0 0.0
2017-Nov-14 00:28N 68°55' E 015°04'0 0.0
2017-Nov-13 23:55N 68°55' E 015°04'0 0.0
2017-Nov-13 23:25N 68°55' E 015°04'0 0.0
2017-Nov-13 22:58N 68°55' E 015°04'0 0.0
2017-Nov-13 22:28N 68°55' E 015°04'0 0.0
2017-Nov-13 21:55N 68°55' E 015°04'0 0.0
2017-Nov-13 01:58N 68°55' E 015°04'0 0.0
2017-Nov-13 01:28N 68°55' E 015°04'0 0.0
2017-Nov-13 00:58N 68°55' E 015°04'0 0.0
2017-Nov-13 00:28N 68°55' E 015°04'0 0.0
2017-Nov-12 23:58N 68°55' E 015°04'0 0.0
2017-Nov-12 23:28N 68°55' E 015°04'0 0.0
2017-Nov-12 22:58N 68°55' E 015°04'0 0.0
2017-Nov-12 22:28N 68°55' E 015°04'0 0.0
2017-Nov-12 21:58N 68°55' E 015°04'0 0.0
2017-Nov-12 21:28N 68°55' E 015°04'0 0.0
2017-Nov-12 20:58N 68°55' E 015°04'0 0.0
2017-Nov-12 20:28N 68°55' E 015°04'0 0.0
2017-Nov-12 19:58N 68°55' E 015°04'0 0.0
2017-Nov-12 19:28N 68°55' E 015°04'0 0.0
2017-Nov-12 18:58N 68°55' E 015°04'0 0.0
2017-Nov-12 18:29N 68°55' E 015°04'0 0.0
2017-Nov-12 17:59N 68°55' E 015°04'0 0.0
2017-Nov-12 17:29N 68°55' E 015°04'0 0.3
2017-Nov-12 16:59N 68°55' E 015°04'3 7.0
2017-Nov-12 16:30N 68°57' E 014°57'4 8.3
2017-Nov-12 16:00N 68°58' E 014°46'4 8.5
2017-Nov-12 15:30N 68°59' E 014°35'4 8.7
2017-Nov-12 15:00N 69°00' E 014°23'1 1.0
2017-Nov-12 14:30N 69°00' E 014°21'2 4.7
2017-Nov-12 13:59N 69°02' E 014°22'1 1.2
2017-Nov-12 13:30N 69°03' E 014°22'0 0.5
2017-Nov-12 12:59N 69°03' E 014°22'0 0.5
2017-Nov-12 12:30N 69°03' E 014°21'0 0.4
2017-Nov-12 12:00N 69°03' E 014°21'0 0.4
2017-Nov-12 11:29N 69°02' E 014°20'0 0.6
2017-Nov-12 11:00N 69°02' E 014°20'0 0.7
2017-Nov-12 10:30N 69°02' E 014°19'1 2.0
2017-Nov-12 10:00N 69°01' E 014°17'2 3.6
2017-Nov-12 09:29N 69°00' E 014°21'0 0.3
2017-Nov-12 09:00N 68°60' E 014°21'0 0.5
2017-Nov-12 08:30N 69°00' E 014°21'0 0.2
2017-Nov-12 08:00N 69°00' E 014°21'0 0.3
2017-Nov-12 07:30N 68°60' E 014°21'4 7.8
2017-Nov-12 07:00N 68°59' E 014°32'4 7.6
2017-Nov-12 06:30N 68°59' E 014°42'4 7.8
2017-Nov-12 06:00N 68°58' E 014°53'4 7.7
2017-Nov-12 05:27N 68°55' E 015°02'1 1.9
2017-Nov-12 04:55N 68°55' E 015°04'0 0.0
2017-Nov-12 04:28N 68°55' E 015°04'0 0.0
2017-Nov-12 03:58N 68°55' E 015°04'0 0.0
2017-Nov-12 03:28N 68°55' E 015°04'0 0.0
2017-Nov-12 02:58N 68°55' E 015°04'0 0.0
2017-Nov-12 02:28N 68°55' E 015°04'0 0.0
2017-Nov-12 01:58N 68°55' E 015°04'0 0.0
2017-Nov-12 01:28N 68°55' E 015°04'0 0.0
2017-Nov-12 00:58N 68°55' E 015°04'0 0.0
2017-Nov-12 00:28N 68°55' E 015°04'0 0.0
2017-Nov-11 23:58N 68°55' E 015°04'0 0.0
2017-Nov-11 23:28N 68°55' E 015°04'0 0.0
2017-Nov-11 22:58N 68°55' E 015°04'0 0.0
2017-Nov-11 22:28N 68°55' E 015°04'0 0.0
2017-Nov-11 21:58N 68°55' E 015°04'0 0.0
2017-Nov-11 21:28N 68°55' E 015°04'0 0.0
2017-Nov-11 20:58N 68°55' E 015°04'0 0.0
2017-Nov-11 20:28N 68°55' E 015°04'0 0.0
2017-Nov-11 19:58N 68°55' E 015°04'0 0.0
2017-Nov-11 19:28N 68°55' E 015°04'0 0.0
2017-Nov-11 18:58N 68°55' E 015°04'0 0.0
2017-Nov-11 18:28N 68°55' E 015°04'0 0.0
2017-Nov-11 17:58N 68°55' E 015°04'0 0.0
2017-Nov-11 17:28N 68°55' E 015°04'0 0.0
2017-Nov-11 16:58N 68°55' E 015°04'0 0.0
2017-Nov-11 16:28N 68°55' E 015°04'0 0.0
2017-Nov-11 15:58N 68°55' E 015°04'0 0.0
2017-Nov-11 15:28N 68°55' E 015°04'0 0.0
2017-Nov-11 14:58N 68°55' E 015°04'0 0.0
2017-Nov-11 14:28N 68°55' E 015°04'0 0.0
2017-Nov-11 13:59N 68°55' E 015°04'0 0.3
2017-Nov-11 13:28N 68°55' E 015°04'2 4.8
2017-Nov-11 13:00N 68°53' E 014°60'3 6.4
2017-Nov-11 12:30N 68°51' E 014°52'0 0.8
2017-Nov-11 11:57N 68°51' E 014°52'2 3.7
2017-Nov-11 11:30N 68°51' E 014°47'1 2.6
2017-Nov-11 10:57N 68°52' E 014°44'0 0.1
2017-Nov-11 10:30N 68°52' E 014°44'0 0.2
2017-Nov-11 09:59N 68°52' E 014°44'3 6.3
2017-Nov-11 09:27N 68°51' E 014°53'3 7.8
2017-Nov-11 09:00N 68°53' E 015°01'2 3.2
2017-Nov-11 08:28N 68°55' E 015°04'0 0.0
2017-Nov-11 07:58N 68°55' E 015°04'0 0.0
2017-Nov-11 07:28N 68°55' E 015°04'0 0.0
2017-Nov-11 06:58N 68°55' E 015°04'0 0.0
2017-Nov-11 06:28N 68°55' E 015°04'0 0.0
2017-Nov-11 05:58N 68°55' E 015°04'0 0.0
2017-Nov-11 05:28N 68°55' E 015°04'0 0.0
2017-Nov-11 04:58N 68°55' E 015°04'0 0.0
2017-Nov-11 04:28N 68°55' E 015°04'0 0.0
2017-Nov-11 03:58N 68°55' E 015°04'0 0.0
2017-Nov-11 03:28N 68°55' E 015°04'0 0.0
2017-Nov-11 02:58N 68°55' E 015°04'0 0.0
2017-Nov-11 02:28N 68°55' E 015°04'0 0.0
2017-Nov-11 01:58N 68°55' E 015°04'0 0.0
2017-Nov-11 01:28N 68°55' E 015°04'0 0.0
2017-Nov-11 00:58N 68°55' E 015°04'0 0.0
2017-Nov-11 00:28N 68°55' E 015°04'0 0.0
2017-Nov-10 23:58N 68°55' E 015°04'0 0.0
2017-Nov-10 23:28N 68°55' E 015°04'0 0.0
2017-Nov-10 22:58N 68°55' E 015°04'0 0.0
2017-Nov-10 22:25N 68°55' E 015°04'0 0.0
2017-Nov-10 21:58N 68°55' E 015°04'0 0.0
2017-Nov-10 21:28N 68°55' E 015°04'0 0.0
2017-Nov-10 20:55N 68°55' E 015°04'0 0.0
2017-Nov-10 20:28N 68°55' E 015°04'0 0.0
2017-Nov-10 19:58N 68°55' E 015°04'0 0.0
2017-Nov-10 19:25N 68°55' E 015°04'0 0.0
2017-Nov-10 18:58N 68°55' E 015°04'0 0.0
2017-Nov-10 18:28N 68°55' E 015°04'0 0.0
2017-Nov-10 17:58N 68°55' E 015°04'0 0.0
2017-Nov-10 17:28N 68°55' E 015°04'0 0.0
2017-Nov-10 16:58N 68°55' E 015°04'0 0.0
2017-Nov-10 16:28N 68°55' E 015°04'0 0.0
2017-Nov-10 15:58N 68°55' E 015°04'0 0.0
2017-Nov-10 15:28N 68°55' E 015°04'0 0.0
2017-Nov-10 14:52N 68°55' E 015°04'0 0.0
2017-Nov-10 14:28N 68°55' E 015°04'0 0.0
2017-Nov-10 13:58N 68°55' E 015°04'0 0.0
2017-Nov-10 13:25N 68°55' E 015°04'0 0.0
2017-Nov-10 12:58N 68°55' E 015°04'0 0.0
2017-Nov-10 12:28N 68°55' E 015°04'0 0.0
2017-Nov-10 11:58N 68°55' E 015°04'0 0.0
2017-Nov-10 11:28N 68°55' E 015°04'0 0.0
2017-Nov-10 10:58N 68°55' E 015°04'0 0.0
2017-Nov-10 10:28N 68°55' E 015°04'0 0.0
2017-Nov-10 09:58N 68°55' E 015°04'0 0.0
2017-Nov-10 09:28N 68°55' E 015°04'0 0.0
2017-Nov-10 08:58N 68°55' E 015°04'0 0.0
2017-Nov-10 08:28N 68°55' E 015°04'0 0.0
2017-Nov-10 07:58N 68°55' E 015°04'0 0.0
2017-Nov-10 07:28N 68°55' E 015°04'0 0.0
2017-Nov-10 06:58N 68°55' E 015°04'0 0.0
2017-Nov-10 06:28N 68°55' E 015°04'0 0.0
2017-Nov-10 05:58N 68°55' E 015°04'0 0.0
2017-Nov-10 05:28N 68°55' E 015°04'0 0.0
2017-Nov-10 04:58N 68°55' E 015°04'0 0.0
2017-Nov-10 04:28N 68°55' E 015°04'0 0.0
2017-Nov-10 03:55N 68°55' E 015°04'0 0.0
2017-Nov-10 03:28N 68°55' E 015°04'0 0.0
2017-Nov-10 02:58N 68°55' E 015°04'0 0.0
2017-Nov-10 02:28N 68°55' E 015°04'0 0.0
2017-Nov-10 01:58N 68°55' E 015°04'0 0.0
2017-Nov-10 01:28N 68°55' E 015°04'0 0.0
2017-Nov-10 00:58N 68°55' E 015°04'0 0.0
2017-Nov-10 00:28N 68°55' E 015°04'0 0.0
2017-Nov-09 23:58N 68°55' E 015°04'0 0.0
2017-Nov-09 23:28N 68°55' E 015°04'0 0.0
2017-Nov-09 22:58N 68°55' E 015°04'0 0.0
2017-Nov-09 22:28N 68°55' E 015°04'0 0.0
2017-Nov-09 21:58N 68°55' E 015°04'0 0.0
2017-Nov-09 21:28N 68°55' E 015°04'0 0.0
2017-Nov-09 20:58N 68°55' E 015°04'0 0.0
2017-Nov-09 20:25N 68°55' E 015°04'0 0.0
2017-Nov-09 19:58N 68°55' E 015°04'0 0.0
2017-Nov-09 19:28N 68°55' E 015°04'0 0.0
2017-Nov-09 18:58N 68°55' E 015°04'0 0.0
2017-Nov-09 18:28N 68°55' E 015°04'0 0.0
2017-Nov-09 17:58N 68°55' E 015°04'0 0.0
2017-Nov-09 17:28N 68°55' E 015°04'0 0.0
2017-Nov-09 16:58N 68°55' E 015°04'0 0.0
2017-Nov-09 16:28N 68°55' E 015°04'0 0.0
2017-Nov-09 15:58N 68°55' E 015°04'0 0.0
2017-Nov-09 15:28N 68°55' E 015°04'0 0.0
2017-Nov-09 14:58N 68°55' E 015°04'0 0.0
2017-Nov-09 14:28N 68°55' E 015°04'0 0.0
2017-Nov-09 13:58N 68°55' E 015°04'0 0.0
2017-Nov-09 13:28N 68°55' E 015°04'0 0.0
2017-Nov-09 12:55N 68°55' E 015°04'0 0.0
2017-Nov-09 12:28N 68°55' E 015°04'0 0.0
2017-Nov-09 11:58N 68°55' E 015°04'0 0.0
2017-Nov-09 11:28N 68°55' E 015°04'0 0.0
2017-Nov-09 10:58N 68°55' E 015°04'0 0.0
2017-Nov-09 10:28N 68°55' E 015°04'0 0.0
2017-Nov-09 09:58N 68°55' E 015°04'0 0.0
2017-Nov-09 09:28N 68°55' E 015°04'0 0.0
2017-Nov-09 08:58N 68°55' E 015°04'0 0.0
2017-Nov-09 08:28N 68°55' E 015°04'0 0.0
2017-Nov-09 07:58N 68°55' E 015°04'0 0.0
2017-Nov-09 07:28N 68°55' E 015°04'0 0.0
2017-Nov-09 06:58N 68°55' E 015°04'0 0.0
2017-Nov-09 06:28N 68°55' E 015°04'0 0.0
2017-Nov-09 05:58N 68°55' E 015°04'0 0.0
2017-Nov-09 05:28N 68°55' E 015°04'0 0.0
2017-Nov-09 04:58N 68°55' E 015°04'0 0.0
2017-Nov-09 04:28N 68°55' E 015°04'0 0.0
2017-Nov-09 03:58N 68°55' E 015°04'0 0.0
2017-Nov-09 03:28N 68°55' E 015°04'0 0.0
2017-Nov-09 02:58N 68°55' E 015°04'0 0.0
2017-Nov-09 02:28N 68°55' E 015°04'0 0.0
2017-Nov-09 01:58N 68°55' E 015°04'0 0.0
2017-Nov-09 01:28N 68°55' E 015°04'0 0.0
2017-Nov-09 00:58N 68°55' E 015°04'0 0.0
2017-Nov-09 00:28N 68°55' E 015°04'0 0.0
2017-Nov-08 23:58N 68°55' E 015°04'0 0.0
2017-Nov-08 23:28N 68°55' E 015°04'0 0.0
2017-Nov-08 22:58N 68°55' E 015°04'0 0.0
2017-Nov-08 22:28N 68°55' E 015°04'0 0.0
2017-Nov-08 21:55N 68°55' E 015°04'0 0.0
2017-Nov-08 21:28N 68°55' E 015°04'0 0.0
2017-Nov-08 20:58N 68°55' E 015°04'0 0.0
2017-Nov-08 20:28N 68°55' E 015°04'0 0.0
2017-Nov-08 19:58N 68°55' E 015°04'0 0.0
2017-Nov-08 19:28N 68°55' E 015°04'0 0.0
2017-Nov-08 18:58N 68°55' E 015°04'0 0.0
2017-Nov-08 18:28N 68°55' E 015°04'0 0.0
2017-Nov-08 17:58N 68°55' E 015°04'0 0.0
2017-Nov-08 17:28N 68°55' E 015°04'0 0.0
2017-Nov-08 16:58N 68°55' E 015°04'0 0.0
2017-Nov-08 16:27N 68°55' E 015°04'0 0.0
2017-Nov-08 16:00N 68°55' E 015°04'0 0.3
2017-Nov-08 15:28N 68°55' E 015°04'3 5.8
2017-Nov-08 15:00N 68°53' E 014°59'4 7.8
2017-Nov-08 14:30N 68°52' E 014°49'2 2.5
2017-Nov-08 13:48N 68°52' E 014°44'0 0.2
2017-Nov-08 12:33N 68°52' E 014°44'0 0.4
2017-Nov-08 12:30N 68°52' E 014°44'4 1.2
2017-Nov-08 09:03N 68°52' E 014°56'0 8.5
2017-Nov-08 09:00N 68°52' E 014°57'4 7.2
2017-Nov-08 08:28N 68°55' E 015°04'0 0.4
2017-Nov-08 07:56N 68°55' E 015°04'0 0.0
2017-Nov-08 07:23N 68°55' E 015°04'0 0.0
2017-Nov-08 06:35N 68°55' E 015°04'0 0.0
2017-Nov-08 06:29N 68°55' E 015°04'0 0.0
2017-Nov-08 05:53N 68°55' E 015°04'0 0.0
2017-Nov-08 05:23N 68°55' E 015°04'0 0.0
2017-Nov-08 04:56N 68°55' E 015°04'0 0.0
2017-Nov-08 04:29N 68°55' E 015°04'0 0.0
2017-Nov-08 03:56N 68°55' E 015°04'0 0.0
2017-Nov-08 03:26N 68°55' E 015°04'0 0.0
2017-Nov-08 02:56N 68°55' E 015°04'0 0.0
2017-Nov-08 02:26N 68°55' E 015°04'0 0.0
2017-Nov-08 01:58N 68°55' E 015°04'0 0.0
2017-Nov-08 01:28N 68°55' E 015°04'0 0.0
2017-Nov-08 00:58N 68°55' E 015°04'0 0.0
2017-Nov-08 00:25N 68°55' E 015°04'0 0.0
2017-Nov-07 23:58N 68°55' E 015°04'0 0.0
2017-Nov-07 22:35N 68°55' E 015°04'0 0.0
2017-Nov-07 22:26N 68°55' E 015°04'0 0.0
2017-Nov-07 21:59N 68°55' E 015°04'0 0.0
2017-Nov-07 21:29N 68°55' E 015°04'0 0.0
2017-Nov-07 20:59N 68°55' E 015°04'0 0.0
2017-Nov-07 20:29N 68°55' E 015°04'0 0.0
2017-Nov-07 19:59N 68°55' E 015°04'0 0.0
2017-Nov-07 19:29N 68°55' E 015°04'0 0.0
2017-Nov-07 18:58N 68°55' E 015°04'0 0.0
2017-Nov-07 18:28N 68°55' E 015°04'0 0.0
2017-Nov-07 17:55N 68°55' E 015°04'0 0.0
2017-Nov-07 17:28N 68°55' E 015°04'0 0.0
2017-Nov-07 16:58N 68°55' E 015°04'0 0.0
2017-Nov-07 16:28N 68°55' E 015°04'0 0.5
2017-Nov-07 16:00N 68°55' E 015°04'4 7.7
2017-Nov-07 15:30N 68°52' E 014°57'4 7.9
2017-Nov-07 14:59N 68°52' E 014°46'1 0.8
2017-Nov-07 14:18N 68°52' E 014°44'0 1.0
2017-Nov-07 13:58N 68°52' E 014°44'0 0.4
2017-Nov-07 13:29N 68°52' E 014°44'0 0.2
2017-Nov-07 12:53N 68°52' E 014°44'1 2.5
2017-Nov-07 12:30N 68°52' E 014°41'3 6.7
2017-Nov-07 11:59N 68°54' E 014°34'4 7.2
2017-Nov-07 11:29N 68°57' E 014°27'2 4.4
2017-Nov-07 11:00N 68°58' E 014°23'2 4.1
2017-Nov-07 10:30N 69°00' E 014°21'1 1.0
2017-Nov-07 09:59N 69°01' E 014°21'1 1.4
2017-Nov-07 09:29N 69°01' E 014°20'1 1.1
2017-Nov-07 09:00N 69°02' E 014°20'1 1.1
2017-Nov-07 08:30N 69°02' E 014°18'2 3.4
2017-Nov-07 08:00N 69°00' E 014°20'0 0.8
2017-Nov-07 07:29N 69°00' E 014°21'0 0.3
2017-Nov-07 07:00N 69°00' E 014°21'4 6.9
2017-Nov-07 06:29N 68°59' E 014°31'4 8.4
2017-Nov-07 06:00N 68°58' E 014°41'4 8.5
2017-Nov-07 05:30N 68°57' E 014°53'4 7.8
2017-Nov-07 05:00N 68°55' E 015°02'1 1.9
2017-Nov-07 04:28N 68°55' E 015°04'0 0.0
2017-Nov-07 03:58N 68°55' E 015°04'0 0.0
2017-Nov-07 03:28N 68°55' E 015°04'0 0.0
2017-Nov-07 02:58N 68°55' E 015°04'0 0.0
2017-Nov-07 02:25N 68°55' E 015°04'0 0.0
2017-Nov-07 01:58N 68°55' E 015°04'0 0.0
2017-Nov-07 01:28N 68°55' E 015°04'0 0.0
2017-Nov-07 00:58N 68°55' E 015°04'0 0.0
2017-Nov-07 00:28N 68°55' E 015°04'0 0.0
2017-Nov-06 23:58N 68°55' E 015°04'0 0.0
2017-Nov-06 23:28N 68°55' E 015°04'0 0.0
2017-Nov-06 22:58N 68°55' E 015°04'0 0.0
2017-Nov-06 22:25N 68°55' E 015°04'0 0.0
2017-Nov-06 21:58N 68°55' E 015°04'0 0.0
2017-Nov-06 21:28N 68°55' E 015°04'0 0.0
2017-Nov-06 20:58N 68°55' E 015°04'0 0.0
2017-Nov-06 20:28N 68°55' E 015°04'  

Dump ship's entire track history